createdAt,value
2019-04-07T00:01:41.263Z,100893.05
2019-04-07T00:04:10.923Z,100888.19
2019-04-07T00:06:40.773Z,100892.08
2019-04-07T00:09:10.822Z,100880.94
2019-04-07T00:11:40.382Z,100880.94
2019-04-07T00:14:10.405Z,100875.55
2019-04-07T00:16:40.577Z,100871.02
2019-04-07T00:19:10.122Z,100866.12
2019-04-07T00:21:40.861Z,100872.73
2019-04-07T00:24:10.369Z,100867.20
2019-04-07T00:26:40.549Z,100862.19
2019-04-07T00:29:10.106Z,100860.47
2019-04-07T00:31:39.861Z,100861.33
2019-04-07T00:34:09.625Z,100866.59
2019-04-07T00:36:39.667Z,100859.01
2019-04-07T00:39:10.546Z,100853.13
2019-04-07T00:41:40.288Z,100854.97
2019-04-07T00:44:09.845Z,100850.44
2019-04-07T00:46:39.784Z,100853.95
2019-04-07T00:49:09.505Z,100854.82
2019-04-07T00:51:39.128Z,100856.05
2019-04-07T00:54:08.596Z,100848.80
2019-04-07T00:56:38.091Z,100850.02
2019-04-07T00:59:07.737Z,100841.94
2019-04-07T01:01:37.236Z,100848.53
2019-04-07T01:04:06.658Z,100845.20
2019-04-07T01:06:36.231Z,100845.56
2019-04-07T01:09:09.129Z,100843.25
2019-04-07T01:11:38.626Z,100843.47
2019-04-07T01:14:08.312Z,100844.77
2019-04-07T01:16:37.910Z,100845.55
2019-04-07T01:19:07.367Z,100848.41
2019-04-07T01:21:36.945Z,100854.61
2019-04-07T01:24:06.542Z,100858.93
2019-04-07T01:26:37.180Z,100864.58
2019-04-07T01:29:08.086Z,100864.67
2019-04-07T01:31:38.017Z,100862.20
2019-04-07T01:34:09.572Z,100853.84
2019-04-07T01:36:39.132Z,100857.95
2019-04-07T01:39:11.123Z,100848.39
2019-04-07T01:41:48.535Z,100843.33
2019-04-07T01:44:39.771Z,100851.30
2019-04-07T01:47:28.858Z,100861.56
2019-04-07T01:50:17.426Z,100859.17
2019-04-07T01:53:04.674Z,100863.61
2019-04-07T01:55:56.433Z,100856.44
2019-04-07T01:58:38.177Z,100857.34
2019-04-07T02:01:23.617Z,100850.63
2019-04-07T02:04:00.333Z,100850.91
2019-04-07T02:06:51.759Z,100849.33
2019-04-07T02:09:43.310Z,100842.04
2019-04-07T02:12:37.749Z,100842.53
2019-04-07T02:15:24.075Z,100840.97
2019-04-07T02:18:08.094Z,100832.02
2019-04-07T02:21:05.397Z,100823.60
2019-04-07T02:23:48.211Z,100815.14
2019-04-07T02:26:31.777Z,100805.34
2019-04-07T02:29:15.439Z,100807.55
2019-04-07T02:32:08.042Z,100803.14
2019-04-07T02:35:03.618Z,100805.83
2019-04-07T02:37:55.554Z,100790.19
2019-04-07T02:40:51.505Z,100787.98
2019-04-07T02:43:40.277Z,100776.34
2019-04-07T02:46:28.798Z,100770.09
2019-04-07T02:49:21.429Z,100772.09
2019-04-07T02:52:07.634Z,100766.70
2019-04-07T02:54:59.244Z,100761.31
2019-04-07T02:57:33.891Z,100754.95
2019-04-07T03:00:22.546Z,100758.98
2019-04-07T03:03:03.409Z,100756.78
2019-04-07T03:05:43.584Z,100753.59
2019-04-07T03:08:27.799Z,100754.09
2019-04-07T03:11:29.190Z,100744.16
2019-04-07T03:14:21.571Z,100744.99
2019-04-07T03:17:08.292Z,100743.31
2019-04-07T03:20:00.650Z,100743.16
2019-04-07T03:22:47.779Z,100736.91
2019-04-07T03:25:24.932Z,100735.93
2019-04-07T03:28:19.777Z,100731.89
2019-04-07T03:31:12.728Z,100726.50
2019-04-07T03:34:20.787Z,100719.77
2019-04-07T03:37:31.300Z,100716.42
2019-04-07T03:40:06.656Z,100695.23
2019-04-07T03:42:53.241Z,100693.25
2019-04-07T03:45:41.649Z,100683.81
2019-04-07T03:48:38.854Z,100687.73
2019-04-07T03:51:26.543Z,100684.89
2019-04-07T03:54:26.851Z,100676.24
2019-04-07T03:57:15.113Z,100666.63
2019-04-07T04:00:12.919Z,100673.13
2019-04-07T04:03:00.649Z,100680.78
2019-04-07T04:05:52.198Z,100684.05
2019-04-07T04:08:32.747Z,100690.36
2019-04-07T04:11:09.604Z,100679.66
2019-04-07T04:13:58.364Z,100684.77
2019-04-07T04:16:34.006Z,100693.06
2019-04-07T04:19:04.237Z,100689.72
2019-04-07T04:21:34.660Z,100682.81
2019-04-07T04:24:04.335Z,100680.48
2019-04-07T04:26:34.364Z,100681.84
2019-04-07T04:29:04.075Z,100686.38
2019-04-07T04:31:33.911Z,100680.08
2019-04-07T04:34:03.441Z,100675.12
2019-04-07T04:36:33.486Z,100666.95
2019-04-07T04:39:04.920Z,100668.25
2019-04-07T04:41:34.841Z,100665.83
2019-04-07T04:44:04.697Z,100665.13
2019-04-07T04:46:34.531Z,100665.25
2019-04-07T04:49:04.271Z,100663.05
2019-04-07T04:51:36.971Z,100642.13
2019-04-07T04:54:05.233Z,100646.67
2019-04-07T04:56:34.773Z,100633.72
2019-04-07T04:59:04.339Z,100643.64
2019-04-07T05:01:34.459Z,100653.20
2019-04-07T05:04:04.115Z,100650.87
2019-04-07T05:06:33.555Z,100652.92
2019-04-07T05:09:04.718Z,100657.53
2019-04-07T05:11:35.909Z,100663.99
2019-04-07T05:14:05.922Z,100668.94
2019-04-07T05:16:35.675Z,100671.36
2019-04-07T05:19:05.235Z,100676.10
2019-04-07T05:21:34.994Z,100675.45
2019-04-07T05:24:04.630Z,100678.31
2019-04-07T05:26:34.522Z,100666.30
2019-04-07T05:29:04.712Z,100670.14
2019-04-07T05:31:34.769Z,100666.90
2019-04-07T05:34:05.353Z,100666.20
2019-04-07T05:36:34.873Z,100666.48
2019-04-07T05:39:06.553Z,100659.53
2019-04-07T05:41:36.330Z,100663.70
2019-04-07T05:44:06.337Z,100677.33
2019-04-07T05:46:40.098Z,100673.41
2019-04-07T05:49:07.625Z,100677.13
2019-04-07T05:51:37.130Z,100680.31
2019-04-07T05:54:07.130Z,100694.64
2019-04-07T05:56:37.204Z,100689.53
2019-04-07T05:59:09.900Z,100686.83
2019-04-07T06:01:37.908Z,100684.27
2019-04-07T06:04:07.609Z,100681.05
2019-04-07T06:06:39.980Z,100677.00
2019-04-07T06:09:09.459Z,100663.19
2019-04-07T06:11:39.048Z,100659.48
2019-04-07T06:14:08.536Z,100666.22
2019-04-07T06:16:37.990Z,100673.72
2019-04-07T06:19:08.275Z,100680.95
2019-04-07T06:21:38.667Z,100665.64
2019-04-07T06:24:08.219Z,100664.99
2019-04-07T06:26:41.527Z,100664.84
2019-04-07T06:29:10.580Z,100663.36
2019-04-07T06:31:40.295Z,100669.30
2019-04-07T06:34:11.274Z,100664.69
2019-04-07T06:36:41.250Z,100661.92
2019-04-07T06:39:11.093Z,100656.95
2019-04-07T06:41:40.665Z,100664.95
2019-04-07T06:44:13.816Z,100664.02
2019-04-07T06:46:59.102Z,100665.86
2019-04-07T06:49:34.509Z,100664.80
2019-04-07T06:52:23.819Z,100669.66
2019-04-07T06:55:17.956Z,100665.16
2019-04-07T06:58:12.079Z,100672.14
2019-04-07T07:01:03.174Z,100674.68
2019-04-07T07:04:09.294Z,100676.52
2019-04-07T07:06:54.376Z,100670.92
2019-04-07T07:09:45.893Z,100676.10
2019-04-07T07:12:37.289Z,100680.30
2019-04-07T07:15:10.047Z,100679.94
2019-04-07T07:17:50.692Z,100684.84
2019-04-07T07:20:28.671Z,100681.49
2019-04-07T07:23:03.877Z,100684.55
2019-04-07T07:25:34.819Z,100689.09
2019-04-07T07:28:04.535Z,100685.54
2019-04-07T07:30:34.889Z,100683.12
2019-04-07T07:33:10.859Z,100694.41
2019-04-07T07:35:38.889Z,100691.70
2019-04-07T07:38:09.205Z,100695.41
2019-04-07T07:40:39.607Z,100693.20
2019-04-07T07:43:09.789Z,100689.16
2019-04-07T07:45:42.980Z,100683.41
2019-04-07T07:48:10.942Z,100687.97
2019-04-07T07:50:41.065Z,100691.66
2019-04-07T07:53:11.438Z,100683.56
2019-04-07T07:55:41.179Z,100691.16
2019-04-07T07:58:11.595Z,100683.93
2019-04-07T08:00:43.399Z,100679.52
2019-04-07T08:03:14.650Z,100683.08
2019-04-07T08:05:44.286Z,100680.87
2019-04-07T08:08:14.942Z,100677.68
2019-04-07T08:10:45.180Z,100683.77
2019-04-07T08:13:14.838Z,100687.17
2019-04-07T08:15:45.804Z,100681.45
2019-04-07T08:18:15.969Z,100685.82
2019-04-07T08:20:46.779Z,100675.73
2019-04-07T08:23:16.263Z,100675.45
2019-04-07T08:25:47.142Z,100677.53
2019-04-07T08:28:19.398Z,100679.91
2019-04-07T08:30:48.047Z,100674.73
2019-04-07T08:33:17.918Z,100685.59
2019-04-07T08:35:48.022Z,100684.58
2019-04-07T08:38:19.971Z,100689.97
2019-04-07T08:40:49.770Z,100696.44
2019-04-07T08:43:21.194Z,100692.27
2019-04-07T08:45:51.437Z,100683.89
2019-04-07T08:48:21.587Z,100686.47
2019-04-07T08:50:51.849Z,100688.55
2019-04-07T08:53:22.876Z,100690.80
2019-04-07T08:55:54.770Z,100693.14
2019-04-07T08:58:27.877Z,100689.58
2019-04-07T09:00:56.192Z,100687.90
2019-04-07T09:03:25.774Z,100689.25
2019-04-07T09:05:57.400Z,100692.28
2019-04-07T09:08:26.525Z,100688.23
2019-04-07T09:11:04.632Z,100688.47
2019-04-07T09:13:34.427Z,100684.75
2019-04-07T09:16:22.486Z,100683.61
2019-04-07T09:19:14.776Z,100689.21
2019-04-07T09:22:02.885Z,100688.47
2019-04-07T09:25:08.225Z,100677.72
2019-04-07T09:27:46.087Z,100679.80
2019-04-07T09:30:37.899Z,100676.94
2019-04-07T09:33:36.938Z,100673.30
2019-04-07T09:36:28.539Z,100675.20
2019-04-07T09:39:23.628Z,100675.41
2019-04-07T09:42:10.978Z,100673.90
2019-04-07T09:45:03.296Z,100670.70
2019-04-07T09:48:00.597Z,100670.05
2019-04-07T09:50:54.966Z,100668.57
2019-04-07T09:53:48.795Z,100667.22
2019-04-07T09:56:33.995Z,100674.80
2019-04-07T09:59:31.864Z,100672.09
2019-04-07T10:02:10.351Z,100676.50
2019-04-07T10:05:11.171Z,100671.11
2019-04-07T10:08:01.172Z,100682.11
2019-04-07T10:10:54.829Z,100678.55
2019-04-07T10:13:49.678Z,100676.50
2019-04-07T10:16:41.949Z,100678.52
2019-04-07T10:19:42.872Z,100679.99
2019-04-07T10:22:29.841Z,100679.30
2019-04-07T10:25:09.480Z,100682.48
2019-04-07T10:28:12.482Z,100682.65
2019-04-07T10:30:50.170Z,100678.44
2019-04-07T10:33:37.822Z,100679.45
2019-04-07T10:36:42.432Z,100675.05
2019-04-07T10:39:33.786Z,100682.28
2019-04-07T10:42:25.899Z,100681.42
2019-04-07T10:45:12.007Z,100684.49
2019-04-07T10:48:12.364Z,100676.39
2019-04-07T10:51:04.457Z,100678.73
2019-04-07T10:53:58.868Z,100670.63
2019-04-07T10:56:48.026Z,100673.70
2019-04-07T10:59:35.264Z,100674.88
2019-04-07T11:02:14.515Z,100670.05
2019-04-07T11:04:57.337Z,100676.30
2019-04-07T11:07:39.335Z,100670.75
2019-04-07T11:10:32.944Z,100667.91
2019-04-07T11:13:12.487Z,100670.45
2019-04-07T11:16:06.398Z,100670.45
2019-04-07T11:18:58.542Z,100674.86
2019-04-07T11:21:42.040Z,100671.15
2019-04-07T11:24:39.841Z,100666.11
2019-04-07T11:27:44.038Z,100667.83
2019-04-07T11:30:35.576Z,100662.75
2019-04-07T11:33:18.272Z,100659.56
2019-04-07T11:36:06.031Z,100660.42
2019-04-07T11:38:53.438Z,100655.52
2019-04-07T11:42:00.905Z,100661.41
2019-04-07T11:44:49.825Z,100662.42
2019-04-07T11:47:36.247Z,100659.86
2019-04-07T11:50:28.076Z,100677.41
2019-04-07T11:53:11.539Z,100679.77
2019-04-07T11:56:08.722Z,100672.82
2019-04-07T11:59:02.599Z,100678.34
2019-04-07T12:01:54.221Z,100671.77
2019-04-07T12:04:34.564Z,100672.91
2019-04-07T12:07:22.100Z,100674.27
2019-04-07T12:10:05.173Z,100678.80
2019-04-07T12:12:49.407Z,100673.41
2019-04-07T12:15:30.326Z,100670.34
2019-04-07T12:18:18.859Z,100664.61
2019-04-07T12:21:07.615Z,100664.61
2019-04-07T12:24:03.275Z,100665.11
2019-04-07T12:26:51.892Z,100669.48
2019-04-07T12:29:49.410Z,100673.24
2019-04-07T12:32:37.949Z,100663.80
2019-04-07T12:35:42.952Z,100666.86
2019-04-07T12:38:45.087Z,100672.82
2019-04-07T12:41:36.880Z,100664.20
2019-04-07T12:44:15.850Z,100669.27
2019-04-07T12:47:03.233Z,100671.97
2019-04-07T12:49:44.958Z,100668.05
2019-04-07T12:52:42.689Z,100672.09
2019-04-07T12:55:35.045Z,100673.97
2019-04-07T12:58:13.435Z,100676.30
2019-04-07T13:01:09.570Z,100676.80
2019-04-07T13:03:48.704Z,100679.16
2019-04-07T13:06:37.598Z,100681.50
2019-04-07T13:09:29.709Z,100685.19
2019-04-07T13:12:28.967Z,100688.61
2019-04-07T13:15:23.505Z,100685.75
2019-04-07T13:18:20.747Z,100687.47
2019-04-07T13:21:11.931Z,100685.59
2019-04-07T13:23:52.572Z,100691.84
2019-04-07T13:26:32.036Z,100694.25
2019-04-07T13:29:18.773Z,100699.86
2019-04-07T13:32:13.266Z,100692.12
2019-04-07T13:34:54.936Z,100697.23
2019-04-07T13:37:50.063Z,100697.72
2019-04-07T13:40:26.916Z,100694.30
2019-04-07T13:43:18.675Z,100691.06
2019-04-07T13:46:22.247Z,100692.55
2019-04-07T13:49:00.106Z,100702.84
2019-04-07T13:54:49.739Z,100700.31
2019-04-07T13:57:32.556Z,100700.80
2019-04-07T14:00:23.619Z,100697.11
2019-04-07T14:03:02.060Z,100703.50
2019-04-07T14:05:53.533Z,100710.25
2019-04-07T14:08:37.553Z,100707.55
2019-04-07T14:11:20.945Z,100710.73
2019-04-07T14:14:09.641Z,100711.59
2019-04-07T14:16:49.729Z,100707.05
2019-04-07T14:19:40.458Z,100710.94
2019-04-07T14:22:28.843Z,100706.77
2019-04-07T14:25:15.608Z,100706.41
2019-04-07T14:28:04.693Z,100717.03
2019-04-07T14:30:53.360Z,100717.03
2019-04-07T14:33:42.571Z,100719.81
2019-04-07T14:36:23.292Z,100717.97
2019-04-07T14:39:18.711Z,100721.36
2019-04-07T14:42:04.518Z,100719.85
2019-04-07T14:44:56.921Z,100718.70
2019-04-07T14:47:36.109Z,100720.41
2019-04-07T14:50:26.470Z,100722.13
2019-04-07T14:53:07.808Z,100722.95
2019-04-07T14:55:45.298Z,100731.58
2019-04-07T14:58:39.581Z,100729.50
2019-04-07T15:01:31.010Z,100738.75
2019-04-07T15:04:01.130Z,100738.91
2019-04-07T15:06:33.314Z,100740.75
2019-04-07T15:09:14.688Z,100732.66
2019-04-07T15:12:14.754Z,100736.58
2019-04-07T15:14:36.003Z,100744.52
2019-04-07T15:17:05.985Z,100744.52
2019-04-07T15:19:36.224Z,100746.36
2019-04-07T15:22:06.768Z,100753.59
2019-04-07T15:24:37.650Z,100754.12
2019-04-07T15:27:08.363Z,100759.32
2019-04-07T15:29:41.366Z,100747.59
2019-04-07T15:32:09.486Z,100760.67
2019-04-07T15:34:42.087Z,100770.41
2019-04-07T15:37:10.627Z,100770.86
2019-04-07T15:39:40.266Z,100767.59
2019-04-07T15:42:11.421Z,100771.09
2019-04-07T15:44:42.754Z,100771.59
2019-04-07T15:47:13.187Z,100771.43
2019-04-07T15:49:42.708Z,100770.94
2019-04-07T15:52:13.097Z,100778.54
2019-04-07T15:54:43.443Z,100778.54
2019-04-07T15:57:13.216Z,100781.73
2019-04-07T15:59:43.295Z,100779.52
2019-04-07T16:02:13.366Z,100783.73
2019-04-07T16:04:44.298Z,100769.38
2019-04-07T16:07:14.614Z,100779.69
2019-04-07T16:09:51.074Z,100777.64
2019-04-07T16:12:16.520Z,100770.31
2019-04-07T16:14:47.019Z,100775.30
2019-04-07T16:17:16.956Z,100778.61
2019-04-07T16:19:50.908Z,100758.30
2019-04-07T16:22:18.209Z,100763.15
2019-04-07T16:24:51.612Z,100759.88
2019-04-07T16:27:19.311Z,100762.37
2019-04-07T16:29:48.895Z,100768.91
2019-04-07T16:32:19.806Z,100766.70
2019-04-07T16:34:49.776Z,100766.36
2019-04-07T16:37:19.389Z,100769.34
2019-04-07T16:39:50.134Z,100767.41
2019-04-07T16:42:19.785Z,100770.77
2019-04-07T16:44:49.397Z,100765.64
2019-04-07T16:47:23.275Z,100765.92
2019-04-07T16:49:50.393Z,100777.73
2019-04-07T16:52:20.434Z,100774.81
2019-04-07T16:54:50.527Z,100771.59
2019-04-07T16:57:20.509Z,100778.65
2019-04-07T16:59:50.126Z,100773.59
2019-04-07T17:02:20.352Z,100780.98
2019-04-07T17:04:50.611Z,100776.56
2019-04-07T17:07:21.885Z,100772.19
2019-04-07T17:09:54.937Z,100778.56
2019-04-07T17:12:23.704Z,100774.80
2019-04-07T17:14:54.216Z,100775.28
2019-04-07T17:17:24.033Z,100773.11
2019-04-07T17:19:58.205Z,100775.28
2019-04-07T17:22:25.716Z,100775.81
2019-04-07T17:25:00.035Z,100774.09
2019-04-07T17:27:28.227Z,100780.83
2019-04-07T17:29:58.438Z,100787.42
2019-04-07T17:32:30.511Z,100783.38
2019-04-07T17:34:59.742Z,100791.83
2019-04-07T17:37:29.724Z,100800.77
2019-04-07T17:40:11.324Z,100788.98
2019-04-07T17:42:39.854Z,100789.84
2019-04-07T17:45:28.673Z,100793.02
2019-04-07T17:48:20.337Z,100793.02
2019-04-07T17:51:10.117Z,100799.55
2019-04-07T17:53:47.307Z,100791.98
2019-04-07T17:56:22.678Z,100802.77
2019-04-07T17:59:04.552Z,100803.59
2019-04-07T18:02:11.309Z,100795.02
2019-04-07T18:05:02.857Z,100797.22
2019-04-07T18:07:47.720Z,100800.13
2019-04-07T18:10:33.821Z,100794.58
2019-04-07T18:13:39.807Z,100801.20
2019-04-07T18:16:17.378Z,100797.52
2019-04-07T18:19:05.926Z,100798.23
2019-04-07T18:21:55.040Z,100806.66
2019-04-07T18:24:51.085Z,100806.53
2019-04-07T18:27:34.084Z,100803.34
2019-04-07T18:30:21.806Z,100799.30
2019-04-07T18:32:56.534Z,100801.35
2019-04-07T18:35:43.918Z,100802.05
2019-04-07T18:38:33.112Z,100798.01
2019-04-07T18:41:24.631Z,100800.13
2019-04-07T18:44:06.377Z,100800.44
2019-04-07T18:46:47.747Z,100805.30
2019-04-07T18:49:45.055Z,100806.87
2019-04-07T18:52:35.794Z,100801.69
2019-04-07T18:55:22.440Z,100804.96
2019-04-07T18:58:03.012Z,100808.23
2019-04-07T19:01:08.168Z,100813.35
2019-04-07T19:04:12.160Z,100806.66
2019-04-07T19:07:04.230Z,100808.44
2019-04-07T19:09:44.485Z,100807.22
2019-04-07T19:12:29.846Z,100804.20
2019-04-07T19:15:13.441Z,100803.97
2019-04-07T19:17:58.950Z,100801.53
2019-04-07T19:20:46.708Z,100800.63
2019-04-07T19:23:26.237Z,100797.98
2019-04-07T19:26:25.472Z,100796.67
2019-04-07T19:29:12.769Z,100798.88
2019-04-07T19:32:11.481Z,100796.05
2019-04-07T19:34:57.241Z,100795.89
2019-04-07T19:37:40.588Z,100796.05
2019-04-07T19:40:23.532Z,100803.09
2019-04-07T19:43:53.215Z,100796.78
2019-04-07T19:46:38.580Z,100799.89
2019-04-07T19:49:27.450Z,100797.44
2019-04-07T19:52:19.036Z,100799.72
2019-04-07T19:55:14.314Z,100801.35
2019-04-07T19:58:02.748Z,100804.33
2019-04-07T20:00:56.865Z,100799.70
2019-04-07T20:03:44.745Z,100797.78
2019-04-07T20:06:44.505Z,100793.52
2019-04-07T20:09:32.294Z,100788.78
2019-04-07T20:12:10.628Z,100788.41
2019-04-07T20:15:08.777Z,100786.36
2019-04-07T20:17:43.058Z,100785.51
2019-04-07T20:20:29.000Z,100784.65
2019-04-07T20:23:20.324Z,100780.97
2019-04-07T20:26:10.007Z,100783.88
2019-04-07T20:29:06.679Z,100782.16
2019-04-07T20:31:53.488Z,100770.02
2019-04-07T20:34:40.123Z,100769.16
2019-04-07T20:37:26.668Z,100769.32
2019-04-07T20:40:38.855Z,100768.13
2019-04-07T20:43:17.647Z,100762.58
2019-04-07T20:46:20.784Z,100762.21
2019-04-07T20:48:59.233Z,100768.95
2019-04-07T20:52:03.562Z,100769.48
2019-04-07T20:54:50.885Z,100766.05
2019-04-07T20:57:54.245Z,100766.70
2019-04-07T21:00:38.198Z,100760.11
2019-04-07T21:03:28.609Z,100769.19
2019-04-07T21:06:16.804Z,100770.32
2019-04-07T21:08:52.866Z,100770.81
2019-04-07T21:11:45.800Z,100764.72
2019-04-07T21:14:29.182Z,100768.06
2019-04-07T21:17:18.834Z,100776.16
2019-04-07T21:20:11.796Z,100778.48
2019-04-07T21:23:07.133Z,100778.64
2019-04-07T21:26:13.856Z,100777.94
2019-04-07T21:28:56.706Z,100783.45
2019-04-07T21:31:32.287Z,100785.81
2019-04-07T21:34:19.200Z,100785.45
2019-04-07T21:37:00.511Z,100776.98
2019-04-07T21:39:48.935Z,100776.28
2019-04-07T21:42:36.058Z,100778.65
2019-04-07T21:45:35.344Z,100786.86
2019-04-07T21:48:13.994Z,100785.67
2019-04-07T21:50:52.677Z,100785.79
2019-04-07T21:53:48.592Z,100786.06
2019-04-07T21:56:39.061Z,100788.06
2019-04-07T21:59:34.095Z,100786.50
2019-04-07T22:02:17.962Z,100783.59
2019-04-07T22:05:07.319Z,100782.03
2019-04-07T22:07:42.727Z,100769.90
2019-04-07T22:10:13.668Z,100772.22
2019-04-07T22:12:44.250Z,100774.22
2019-04-07T22:15:15.133Z,100779.61
2019-04-07T22:17:45.812Z,100777.92
2019-04-07T22:20:18.803Z,100778.91
2019-04-07T22:22:47.179Z,100776.21
2019-04-07T22:25:23.299Z,100772.32
2019-04-07T22:27:55.537Z,100773.67
2019-04-07T22:30:24.242Z,100761.66
2019-04-07T22:32:54.127Z,100759.45
2019-04-07T22:35:24.588Z,100765.70
2019-04-07T22:37:54.737Z,100764.72
2019-04-07T22:40:25.552Z,100757.62
2019-04-07T22:42:55.197Z,100757.12
2019-04-07T22:45:28.557Z,100752.22
2019-04-07T22:47:57.108Z,100762.52
2019-04-07T22:50:27.252Z,100758.47
2019-04-07T22:52:57.475Z,100763.01
2019-04-07T22:55:27.202Z,100776.15
2019-04-07T22:57:57.820Z,100765.86
2019-04-07T23:00:27.536Z,100767.69
2019-04-07T23:02:57.167Z,100769.16
2019-04-07T23:05:27.635Z,100778.08
2019-04-07T23:07:57.237Z,100781.29
2019-04-07T23:10:27.398Z,100772.34
2019-04-07T23:12:57.324Z,100771.98
2019-04-07T23:15:38.664Z,100784.97
2019-04-07T23:17:58.309Z,100786.31
2019-04-07T23:20:29.007Z,100777.59
2019-04-07T23:22:58.705Z,100779.39
2019-04-07T23:25:28.290Z,100777.28
2019-04-07T23:27:58.462Z,100778.69
2019-04-07T23:30:29.356Z,100779.76
2019-04-07T23:32:58.953Z,100784.88
2019-04-07T23:35:28.766Z,100785.45
2019-04-07T23:37:59.407Z,100789.84
2019-04-07T23:40:29.927Z,100781.96
2019-04-07T23:43:00.579Z,100786.37
2019-04-07T23:45:30.210Z,100791.48
2019-04-07T23:47:59.955Z,100795.53
2019-04-07T23:50:29.515Z,100793.11
2019-04-07T23:53:03.538Z,100804.55
2019-04-07T23:55:33.129Z,100802.13
2019-04-07T23:58:02.833Z,100796.80
